Time;durP1;ratioP1;P1;durP2;ratioP2;P2;SDS_P1;SDS_P2;PMS_P1;PMS_P2;Temp;Humidity;BMP_temperature;BMP_pressure;BME280_temperature;BME280_humidity;BME280_pressure;Samples;Min_cycle;Max_cycle;Signal;HPM_P1;HPM_P2
2021/12/12 00:07:39;;;;;;;138.90;59.90;;;;;;;-0.90;86.21;99082.23;418395;1315;97906;-40
2021/12/12 00:17:49;;;;;;;136.20;60.70;;;;;;;-0.96;86.39;99079.77;418276;1315;112183;-39
2021/12/12 00:27:57;;;;;;;138.10;59.90;;;;;;;-1.01;86.26;99079.34;418217;1317;108964;-42
2021/12/12 00:38:12;;;;;;;146.50;62.60;;;;;;;-1.08;86.18;99077.34;418402;1315;100907;-40
2021/12/12 00:48:18;;;;;;;105.80;53.80;;;;;;;-1.10;85.99;99085.16;418282;1315;97957;-41
2021/12/12 00:58:26;;;;;;;87.50;45.90;;;;;;;-1.07;86.22;99089.16;418170;1315;108958;-39
2021/12/12 01:08:35;;;;;;;84.90;45.30;;;;;;;-0.98;86.26;99099.66;418515;1315;97961;-40
2021/12/12 01:18:48;;;;;;;133.50;61.60;;;;;;;-0.94;86.26;99103.32;414616;1315;5397171;-40
2021/12/12 01:28:56;;;;;;;111.90;53.30;;;;;;;-0.93;86.39;99102.90;418251;1315;108893;-40
2021/12/12 01:39:02;;;;;;;111.90;51.00;;;;;;;-1.05;86.24;99110.63;417998;1318;98005;-40
2021/12/12 01:49:13;;;;;;;106.60;48.70;;;;;;;-1.25;86.22;99102.08;418313;1315;110212;-40
2021/12/12 01:59:25;;;;;;;83.90;44.00;;;;;;;-1.33;86.07;99104.90;418112;1315;109385;-40
2021/12/12 02:09:33;;;;;;;72.90;39.40;;;;;;;-1.34;86.01;99115.89;418341;1317;97573;-40
2021/12/12 02:19:53;;;;;;;87.90;45.50;;;;;;;-1.17;86.05;99130.73;418301;1315;111049;-41
2021/12/12 02:40:27;;;;;;;98.80;47.20;;;;;;;-1.04;86.28;99155.13;419483;1304;97989;-40
2021/12/12 02:50:36;;;;;;;109.70;50.80;;;;;;;-1.10;86.15;99162.30;419359;1315;111291;-40
2021/12/12 03:00:40;;;;;;;101.70;46.00;;;;;;;-1.20;86.26;99169.05;419421;1314;107284;-41
2021/12/12 03:10:49;;;;;;;87.70;43.20;;;;;;;-1.21;86.20;99169.49;419299;1315;97948;-40
2021/12/12 03:21:02;;;;;;;80.50;38.60;;;;;;;-1.08;86.29;99170.77;419057;1315;97982;-40
2021/12/12 03:31:13;;;;;;;68.20;37.10;;;;;;;-0.98;86.08;99170.29;419212;1315;108888;-39
2021/12/12 03:41:25;;;;;;;91.40;45.40;;;;;;;-0.92;86.09;99175.00;419217;1315;97981;-40
2021/12/12 03:51:35;;;;;;;89.50;42.80;;;;;;;-1.09;86.10;99180.91;418991;1314;97969;-42
2021/12/12 04:01:45;;;;;;;92.50;42.50;;;;;;;-1.34;85.99;99190.89;418949;1315;111042;-41
2021/12/12 04:11:55;;;;;;;80.90;38.80;;;;;;;-1.52;85.97;99209.56;419270;1315;107838;-40
2021/12/12 04:22:04;;;;;;;75.40;43.00;;;;;;;-1.68;85.80;99212.89;419024;1315;108912;-40
2021/12/12 04:32:16;;;;;;;69.60;36.80;;;;;;;-1.86;85.51;99221.92;419098;1315;98057;-40
2021/12/12 04:42:25;;;;;;;94.00;45.90;;;;;;;-2.04;85.72;99231.30;419130;1317;108848;-40
2021/12/12 04:52:38;;;;;;;98.60;47.30;;;;;;;-2.24;86.02;99253.12;419248;1317;97915;-40
2021/12/12 05:12:56;;;;;;;112.50;49.60;;;;;;;-3.03;85.57;99284.17;419007;1317;111172;-39
2021/12/12 05:23:05;;;;;;;95.40;43.30;;;;;;;-3.40;85.51;99277.92;419026;1317;108970;-40
2021/12/12 05:33:16;;;;;;;99.50;52.30;;;;;;;-3.54;85.51;99289.79;418944;1315;98648;-40
2021/12/12 05:43:24;;;;;;;103.60;51.70;;;;;;;-3.38;85.79;99300.71;418978;1317;110379;-41
2021/12/12 05:53:31;;;;;;;87.90;46.40;;;;;;;-3.06;85.88;99302.18;418867;1317;108866;-40
2021/12/12 06:03:39;;;;;;;83.60;40.30;;;;;;;-2.97;85.84;99302.70;418978;1317;98199;-40
2021/12/12 06:13:47;;;;;;;103.70;45.80;;;;;;;-2.97;86.01;99301.99;419055;1315;107542;-40
2021/12/12 06:23:54;;;;;;;109.40;47.30;;;;;;;-3.22;86.09;99308.02;419047;1315;106846;-41
2021/12/12 06:34:01;;;;;;;119.60;47.40;;;;;;;-3.29;86.18;99305.30;418946;1317;98003;-39
2021/12/12 06:44:11;;;;;;;130.80;44.80;;;;;;;-3.42;86.06;99310.45;419070;1315;111328;-40
2021/12/12 06:54:15;;;;;;;;;;;;;;;-3.44;86.13;99331.66;418835;1315;107159;-42
2021/12/12 07:04:23;;;;;;;109.40;51.20;;;;;;;-3.30;86.09;99345.00;418802;1315;98009;-40
2021/12/12 07:14:30;;;;;;;71.80;34.90;;;;;;;-3.06;86.23;99358.90;419032;1317;110304;-40
2021/12/12 07:24:38;;;;;;;107.50;45.80;;;;;;;-3.02;86.04;99364.48;418809;1317;108858;-41
2021/12/12 07:34:46;;;;;;;125.00;50.10;;;;;;;-3.14;85.99;99368.67;418869;1315;98474;-40
2021/12/12 07:44:55;;;;;;;91.50;41.40;;;;;;;-3.22;85.95;99370.09;418763;1317;111152;-40
2021/12/12 07:55:05;;;;;;;90.70;40.00;;;;;;;-3.15;85.93;99382.80;418782;1315;107345;-41
2021/12/12 08:15:15;;;;;;;106.00;43.70;;;;;;;-2.85;85.92;99399.27;419174;1315;110137;-39
2021/12/12 08:25:22;;;;;;;81.40;35.80;;;;;;;-2.93;85.84;99403.96;418900;1315;107872;-39
2021/12/12 08:35:31;;;;;;;91.60;38.70;;;;;;;-3.21;85.78;99409.63;418915;1315;96706;-43
2021/12/12 08:45:41;;;;;;;;;;;;;;;-3.37;85.85;99410.38;419146;1317;111323;-42
2021/12/12 08:55:51;;;;;;;117.20;54.30;;;;;;;-3.45;85.96;99415.54;418712;1315;107967;-40
2021/12/12 09:05:59;;;;;;;67.20;36.50;;;;;;;-3.29;85.82;99415.30;418765;1317;97804;-40
2021/12/12 09:16:08;;;;;;;87.20;38.30;;;;;;;-2.99;86.09;99406.13;414664;1315;5498343;-40
2021/12/12 09:26:18;;;;;;;133.60;53.30;;;;;;;-2.75;86.12;99402.11;418663;1317;108796;-40
2021/12/12 09:36:23;;;;;;;;;;;;;;;-2.65;85.76;99399.49;418741;1315;97983;-40
2021/12/12 09:46:58;;;;;;;159.80;57.40;;;;;;;-2.41;85.84;99398.93;418569;1317;112028;-39
2021/12/12 09:57:04;;;;;;;113.50;47.20;;;;;;;-2.61;85.47;99400.62;418702;1315;108941;-39
2021/12/12 10:07:17;;;;;;;95.30;46.70;;;;;;;-2.64;85.44;99402.36;418694;1315;97883;-39
2021/12/12 10:17:23;;;;;;;80.90;34.00;;;;;;;-2.42;85.92;99409.51;418652;1315;111085;-41
2021/12/12 10:27:30;;;;;;;104.10;45.50;;;;;;;-2.15;85.72;99403.42;418061;1317;107692;-40
2021/12/12 10:37:47;;;;;;;118.40;47.10;;;;;;;-1.95;85.52;99397.35;418808;1317;98057;-42
2021/12/12 10:47:55;;;;;;;108.70;44.70;;;;;;;-2.10;85.46;99391.65;418677;1317;108740;-40
2021/12/12 10:58:04;;;;;;;82.90;37.40;;;;;;;-2.18;85.24;99387.67;418787;1315;109137;-40
2021/12/12 11:18:35;;;;;;;108.50;46.80;;;;;;;-1.94;85.52;99386.96;418461;1315;111233;-40
2021/12/12 11:28:46;;;;;;;122.60;49.70;;;;;;;-2.00;85.17;99381.95;418770;1315;108012;-40
2021/12/12 11:39:02;;;;;;;115.30;47.90;;;;;;;-1.87;85.38;99381.73;418618;1315;97971;-40
2021/12/12 11:59:16;;;;;;;;;;;;;;;-1.74;84.97;99378.64;418754;1315;109272;-39
2021/12/12 12:09:28;;;;;;;125.20;53.40;;;;;;;-1.91;84.89;99374.56;418548;1315;97964;-40
2021/12/12 12:19:33;;;;;;;97.70;43.30;;;;;;;-1.70;84.97;99376.73;417914;1317;111176;-40
2021/12/12 12:30:20;;;;;;;116.40;54.50;;;;;;;-1.47;84.78;99377.36;418491;1315;108902;-41
2021/12/12 12:41:12;;;;;;;126.20;54.00;;;;;;;-1.59;84.78;99375.83;418670;1315;98007;-41
2021/12/12 12:51:38;;;;;;;130.20;55.60;;;;;;;-1.65;85.22;99373.59;418587;1315;110977;-40
2021/12/12 13:02:11;;;;;;;138.40;57.10;;;;;;;-1.67;84.95;99370.83;418441;1315;107951;-39
2021/12/12 13:12:31;;;;;;;113.30;50.60;;;;;;;-1.67;85.07;99360.75;418538;1315;109016;-40
2021/12/12 13:43:08;;;;;;;146.60;64.50;;;;;;;-1.48;85.01;99368.95;418960;1315;97130;-40
2021/12/12 13:53:24;;;;;;;149.20;63.90;;;;;;;-1.62;84.96;99374.11;418649;1315;97974;-39
2021/12/12 14:03:32;;;;;;;182.30;75.50;;;;;;;-1.89;84.96;99382.95;418753;1315;111164;-39
2021/12/12 14:13:43;;;;;;;175.40;73.10;;;;;;;-2.21;85.02;99394.50;418845;1315;109063;-40
2021/12/12 14:23:51;;;;;;;170.90;72.70;;;;;;;-2.54;85.18;99392.91;418876;1315;97989;-39
2021/12/12 14:33:58;;;;;;;138.30;65.10;;;;;;;-2.75;84.89;99394.73;418750;1315;111330;-39
2021/12/12 14:44:10;;;;;;;113.50;57.60;;;;;;;-2.91;84.76;99391.87;418597;1315;107463;-40
2021/12/12 14:54:18;;;;;;;190.10;74.30;;;;;;;-3.11;84.77;99401.41;418902;1315;97846;-40
2021/12/12 15:04:29;;;;;;;189.50;78.60;;;;;;;-3.37;84.77;99407.88;418640;1315;109136;-40
2021/12/12 15:14:38;;;;;;;184.90;74.40;;;;;;;-3.67;84.92;99411.91;418600;1315;108890;-40
2021/12/12 15:24:43;;;;;;;209.10;77.80;;;;;;;-3.94;84.85;99408.02;418661;1315;98691;-40
2021/12/12 15:34:49;;;;;;;279.60;96.80;;;;;;;-4.19;85.11;99403.77;418742;1315;111544;-40
2021/12/12 15:45:00;;;;;;;235.60;104.90;;;;;;;-4.33;84.93;99406.19;418668;1314;108894;-42
2021/12/12 15:55:10;;;;;;;252.90;110.30;;;;;;;-4.39;84.93;99411.27;418798;1314;97950;-39
2021/12/12 16:05:24;;;;;;;225.70;100.80;;;;;;;-4.41;84.70;99420.73;418369;1317;110973;-40
2021/12/12 16:15:38;;;;;;;396.50;148.80;;;;;;;-4.47;84.95;99421.04;418691;1315;108731;-39
2021/12/12 16:25:48;;;;;;;422.80;159.60;;;;;;;-4.55;85.06;99429.34;418860;1315;98085;-40
2021/12/12 16:35:56;;;;;;;407.60;149.40;;;;;;;-4.72;84.92;99442.35;418695;1315;111148;-39
2021/12/12 16:46:05;;;;;;;367.90;137.80;;;;;;;-5.00;84.73;99436.33;418859;1315;109192;-40
2021/12/12 16:56:20;;;;;;;339.70;141.30;;;;;;;-5.03;85.27;99432.59;418714;1314;97994;-40
2021/12/12 17:06:29;;;;;;;316.30;150.10;;;;;;;-4.78;85.41;99423.89;418643;1314;111159;-40
2021/12/12 17:16:38;;;;;;;374.50;175.60;;;;;;;-4.58;85.49;99410.86;414737;1315;5379416;-39
2021/12/12 17:26:48;;;;;;;335.80;155.30;;;;;;;-4.49;85.44;99409.81;418637;1315;98084;-39
2021/12/12 17:36:56;;;;;;;494.70;218.10;;;;;;;-4.37;85.39;99419.20;418775;1315;108885;-39
2021/12/12 17:47:53;;;;;;;478.70;209.30;;;;;;;-4.45;85.28;99418.27;419087;1313;109667;-40
2021/12/12 17:58:02;;;;;;;419.90;178.80;;;;;;;-4.66;85.41;99408.14;418310;1313;98217;-39
2021/12/12 18:08:23;;;;;;;348.20;142.00;;;;;;;-4.75;85.43;99401.77;419285;1313;111229;-39
2021/12/12 18:18:59;;;;;;;305.20;132.20;;;;;;;-4.77;85.67;99409.83;419257;1315;108957;-41
2021/12/12 18:29:17;;;;;;;276.30;131.00;;;;;;;-4.69;85.55;99408.23;418936;1315;97547;-39
2021/12/12 18:39:27;;;;;;;239.90;108.50;;;;;;;-4.55;85.65;99401.65;419045;1318;111104;-41
2021/12/12 18:49:32;;;;;;;199.60;100.30;;;;;;;-4.44;85.64;99398.55;418880;1315;108974;-41
2021/12/12 18:59:41;;;;;;;153.20;73.50;;;;;;;-4.27;85.69;99398.33;418864;1315;97870;-39
2021/12/12 19:09:53;;;;;;;231.10;91.30;;;;;;;-4.17;85.95;99415.96;418876;1315;107074;-40
2021/12/12 19:20:13;;;;;;;236.20;88.70;;;;;;;-4.28;85.79;99412.73;418902;1315;98093;-42
2021/12/12 19:40:29;;;;;;;182.30;62.70;;;;;;;-4.39;85.89;99404.57;418861;1316;98092;-39
2021/12/12 19:50:38;;;;;;;133.30;61.20;;;;;;;-4.40;85.94;99396.91;418679;1315;109370;-40
2021/12/12 20:00:48;;;;;;;121.30;56.30;;;;;;;-4.28;86.09;99406.99;418911;1315;98260;-41
2021/12/12 20:11:01;;;;;;;128.60;61.70;;;;;;;-4.31;85.92;99408.79;418815;1315;107964;-39
2021/12/12 20:21:08;;;;;;;141.90;69.20;;;;;;;-4.25;86.00;99410.61;419014;1315;97906;-39
2021/12/12 20:31:20;;;;;;;174.60;71.90;;;;;;;-4.21;86.25;99414.60;418924;1315;110551;-38
2021/12/12 20:41:33;;;;;;;258.20;93.50;;;;;;;-4.50;86.08;99410.41;418879;1315;107792;-43
2021/12/12 20:51:39;;;;;;;348.70;139.00;;;;;;;-4.85;86.13;99401.00;418867;1315;108945;-42
2021/12/12 21:01:50;;;;;;;308.30;131.40;;;;;;;-5.10;85.89;99392.70;418972;1314;97552;-40
2021/12/12 21:11:56;;;;;;;265.00;116.20;;;;;;;-5.28;85.91;99392.45;418987;1315;108935;-39
2021/12/12 21:22:04;;;;;;;240.40;102.50;;;;;;;-5.35;86.13;99389.48;419202;1315;97999;-39
2021/12/12 21:32:17;;;;;;;285.20;103.70;;;;;;;-5.47;86.05;99389.49;418227;1316;112054;-40
2021/12/12 21:42:27;;;;;;;271.20;101.10;;;;;;;-5.92;85.90;99387.06;419043;1315;109103;-40
2021/12/12 22:02:51;;;;;;;195.80;75.90;;;;;;;-6.39;86.00;99363.60;419118;1315;97912;-40
2021/12/12 22:13:07;;;;;;;160.50;69.50;;;;;;;-6.34;86.04;99374.03;418867;1315;109181;-39
2021/12/12 22:23:24;;;;;;;161.40;69.80;;;;;;;-6.26;86.07;99377.27;419101;1315;98505;-38
2021/12/12 22:33:30;;;;;;;145.60;64.00;;;;;;;-6.25;85.95;99369.76;418787;1315;111851;-41
2021/12/12 22:43:40;;;;;;;130.80;57.20;;;;;;;-6.19;86.28;99365.27;418706;1315;109049;-39
2021/12/12 22:53:52;;;;;;;143.90;63.10;;;;;;;-6.25;85.99;99348.67;419589;1313;97112;-40
2021/12/12 23:03:59;;;;;;;145.70;67.40;;;;;;;-6.20;86.02;99352.66;419242;1315;108957;-39
2021/12/12 23:14:10;;;;;;;154.50;66.70;;;;;;;-6.09;86.13;99360.46;419111;1315;97940;-41
2021/12/12 23:24:16;;;;;;;158.50;68.60;;;;;;;-6.06;85.99;99351.17;418886;1315;111176;-40
2021/12/12 23:34:24;;;;;;;165.00;68.40;;;;;;;-6.12;85.82;99351.75;419312;1315;108931;-40
2021/12/12 23:55:05;;;;;;;121.20;55.70;;;;;;;-6.03;86.02;99342.73;419274;1315;108312;-41
